Terminal Aerodrome Forecast
Issued by NWS St Louis, MO

Home | Current Version | Previous Version | Text Only | Print | Product List | Glossary On
Versions: 1 2 3 4 5 6 7 8 9 10 11 12 13 14 15 16 17 18 19 20 21 22 23 24 25 26 27 28 29
000
FTUS43 KLSX 271706 AAD
TAFCOU
TAF AMD
KCOU 271706Z 2717/2812 18012G22KT P6SM SCT015 BKN035
      TEMPO 2717/2718 BKN015
     FM272100 17010KT 6SM -SHRA VCTS SCT050CB BKN100
     FM280300 16010KT P6SM SCT050 BKN100=

USA.gov is the U.S. government's official web portal to all federal, state and local government web resources and services.